createdAt,value
2023-09-01T00:01:16.182Z,6.00
2023-09-01T00:04:02.266Z,6.40
2023-09-01T00:06:28.976Z,6.60
2023-09-01T00:08:55.555Z,5.80
2023-09-01T00:11:22.164Z,7.10
2023-09-01T00:13:48.842Z,7.10
2023-09-01T00:16:15.577Z,6.80
2023-09-01T00:18:42.252Z,6.90
2023-09-01T00:21:09.027Z,6.90
2023-09-01T00:23:35.654Z,6.60
2023-09-01T00:26:02.305Z,6.70
2023-09-01T00:28:29.066Z,6.70
2023-09-01T00:30:57.256Z,6.60
2023-09-01T00:33:27.291Z,6.20
2023-09-01T00:35:54.800Z,6.30
2023-09-01T00:38:21.347Z,6.90
2023-09-01T00:40:48.768Z,6.50
2023-09-01T00:43:16.241Z,6.60
2023-09-01T00:45:43.128Z,5.70
2023-09-01T00:48:11.182Z,7.20
2023-09-01T00:50:37.857Z,6.20
2023-09-01T00:53:06.053Z,6.60
2023-09-01T00:55:33.771Z,7.40
2023-09-01T00:58:01.408Z,6.00
2023-09-01T01:00:32.006Z,6.20
2023-09-01T01:03:03.937Z,6.60
2023-09-01T01:05:52.048Z,6.20
2023-09-01T01:08:33.012Z,7.00
2023-09-01T01:11:07.436Z,6.70
2023-09-01T01:13:36.452Z,6.30
2023-09-01T01:16:03.174Z,6.60
2023-09-01T01:18:30.524Z,7.10
2023-09-01T01:21:05.887Z,6.60
2023-09-01T01:23:32.623Z,6.80
2023-09-01T01:26:00.000Z,6.70
2023-09-01T01:28:26.614Z,6.40
2023-09-01T01:30:53.163Z,6.10
2023-09-01T01:33:28.596Z,6.60
2023-09-01T01:36:04.768Z,6.60
2023-09-01T01:38:32.825Z,5.90
2023-09-01T01:41:03.960Z,6.30
2023-09-01T01:43:30.915Z,6.50
2023-09-01T01:45:57.561Z,6.50
2023-09-01T01:48:24.227Z,6.30
2023-09-01T01:50:55.522Z,6.50
2023-09-01T01:53:23.321Z,6.30
2023-09-01T01:55:51.555Z,6.60
2023-09-01T01:58:18.207Z,6.30
2023-09-01T02:00:44.777Z,6.10
2023-09-01T02:03:11.393Z,6.70
2023-09-01T02:05:37.848Z,6.50
2023-09-01T02:08:06.623Z,6.40
2023-09-01T02:10:33.958Z,6.60
2023-09-01T02:13:01.809Z,6.60
2023-09-01T02:15:28.532Z,6.30
2023-09-01T02:17:55.449Z,6.40
2023-09-01T02:20:22.378Z,6.50
2023-09-01T02:22:50.988Z,6.60
2023-09-01T02:25:17.735Z,7.10
2023-09-01T02:27:44.500Z,7.00
2023-09-01T02:30:13.033Z,6.50
2023-09-01T02:32:39.889Z,6.50
2023-09-01T02:35:16.686Z,6.60
2023-09-01T02:37:43.805Z,7.00
2023-09-01T02:40:13.857Z,6.50
2023-09-01T02:42:40.925Z,6.70
2023-09-01T02:45:27.681Z,6.80
2023-09-01T02:47:54.206Z,6.60
2023-09-01T02:50:21.045Z,6.80
2023-09-01T02:52:47.608Z,7.00
2023-09-01T02:55:18.247Z,7.60
2023-09-01T02:57:45.535Z,6.90
2023-09-01T03:00:18.691Z,7.00
2023-09-01T03:02:45.980Z,7.00
2023-09-01T03:05:12.935Z,7.30
2023-09-01T03:07:40.384Z,7.60
2023-09-01T03:10:10.919Z,7.20
2023-09-01T03:12:38.331Z,7.90
2023-09-01T03:15:07.444Z,7.50
2023-09-01T03:17:34.204Z,7.00
2023-09-01T03:20:01.046Z,7.40
2023-09-01T03:22:27.686Z,7.70
2023-09-01T03:24:55.196Z,7.30
2023-09-01T03:27:21.866Z,7.40
2023-09-01T03:29:56.471Z,8.00
2023-09-01T03:32:25.393Z,7.70
2023-09-01T03:34:52.387Z,8.30
2023-09-01T03:37:19.043Z,8.30
2023-09-01T03:39:45.691Z,8.70
2023-09-01T03:42:13.074Z,8.10
2023-09-01T03:44:39.664Z,8.10
2023-09-01T03:47:08.435Z,7.90
2023-09-01T03:49:37.117Z,8.00
2023-09-01T03:52:03.906Z,8.00
2023-09-01T03:54:30.469Z,10.50
2023-09-01T03:56:58.797Z,9.80
2023-09-01T03:59:25.772Z,12.10
2023-09-01T04:01:52.268Z,14.30
2023-09-01T04:04:19.322Z,16.20
2023-09-01T04:06:46.021Z,16.60
2023-09-01T04:09:15.320Z,16.40
2023-09-01T04:11:41.941Z,13.40
2023-09-01T04:14:09.746Z,14.30
2023-09-01T04:16:36.257Z,10.20
2023-09-01T04:19:03.158Z,8.90
2023-09-01T04:21:30.155Z,9.50
2023-09-01T04:23:57.689Z,8.70
2023-09-01T04:26:24.258Z,8.50
2023-09-01T04:28:50.967Z,8.50
2023-09-01T04:31:26.449Z,8.50
2023-09-01T04:33:53.265Z,8.70
2023-09-01T04:36:21.714Z,9.00
2023-09-01T04:38:49.261Z,9.20
2023-09-01T04:41:15.943Z,8.60
2023-09-01T04:43:43.110Z,8.40
2023-09-01T04:46:09.851Z,8.80
2023-09-01T04:48:36.743Z,8.60
2023-09-01T04:51:03.320Z,7.80
2023-09-01T04:53:30.358Z,7.70
2023-09-01T04:55:57.010Z,8.30
2023-09-01T04:58:23.764Z,7.90
2023-09-01T05:00:51.502Z,8.20
2023-09-01T05:03:18.348Z,7.50
2023-09-01T05:05:47.010Z,7.90
2023-09-01T05:08:14.057Z,7.50
2023-09-01T05:10:41.474Z,7.40
2023-09-01T05:13:08.099Z,7.60
2023-09-01T05:15:35.776Z,8.30
2023-09-01T05:18:02.895Z,7.60
2023-09-01T05:20:29.662Z,8.20
2023-09-01T05:22:56.345Z,7.40
2023-09-01T05:25:23.981Z,8.00
2023-09-01T05:27:50.492Z,7.50
2023-09-01T05:30:17.139Z,8.10
2023-09-01T05:32:44.010Z,7.60
2023-09-01T05:35:10.772Z,7.20
2023-09-01T05:37:37.721Z,7.00
2023-09-01T05:40:07.704Z,7.60
2023-09-01T05:42:34.616Z,7.50
2023-09-01T05:45:01.273Z,8.10
2023-09-01T05:47:29.169Z,7.10
2023-09-01T05:49:55.928Z,7.20
2023-09-01T05:52:22.532Z,7.60
2023-09-01T05:54:49.230Z,6.70
2023-09-01T05:57:15.789Z,6.90
2023-09-01T05:59:42.521Z,7.00
2023-09-01T06:02:09.286Z,7.00
2023-09-01T06:04:36.024Z,7.20
2023-09-01T06:07:03.742Z,7.00
2023-09-01T06:09:30.329Z,7.10
2023-09-01T06:11:56.862Z,8.00
2023-09-01T06:14:23.584Z,7.50
2023-09-01T06:16:51.759Z,8.00
2023-09-01T06:19:19.497Z,7.50
2023-09-01T06:21:46.179Z,8.50
2023-09-01T06:24:12.828Z,8.30
2023-09-01T06:26:39.548Z,7.90
2023-09-01T06:29:06.070Z,8.20
2023-09-01T06:31:32.652Z,8.30
2023-09-01T06:33:59.104Z,8.20
2023-09-01T06:36:25.590Z,7.70
2023-09-01T06:38:52.251Z,8.70
2023-09-01T06:41:18.689Z,8.20
2023-09-01T06:43:45.481Z,8.30
2023-09-01T06:46:12.112Z,7.80
2023-09-01T06:48:38.739Z,8.40
2023-09-01T06:51:05.352Z,8.30
2023-09-01T06:53:32.020Z,7.80
2023-09-01T06:55:58.640Z,7.00
2023-09-01T06:58:25.203Z,7.40
2023-09-01T07:00:51.998Z,7.90
2023-09-01T07:03:20.228Z,7.90
2023-09-01T07:05:55.111Z,7.10
2023-09-01T07:08:21.913Z,6.90
2023-09-01T07:10:48.637Z,7.50
2023-09-01T07:13:15.157Z,7.50
2023-09-01T07:15:47.727Z,7.30
2023-09-01T07:18:16.415Z,6.80
2023-09-01T07:20:46.497Z,8.00
2023-09-01T07:23:13.300Z,7.30
2023-09-01T07:25:40.584Z,7.40
2023-09-01T07:28:07.246Z,7.00
2023-09-01T07:30:34.142Z,6.60
2023-09-01T07:33:00.854Z,7.00
2023-09-01T07:35:27.683Z,7.30
2023-09-01T07:37:54.527Z,6.70
2023-09-01T07:40:21.035Z,6.70
2023-09-01T07:42:48.187Z,6.10
2023-09-01T07:45:14.900Z,5.90
2023-09-01T07:47:41.615Z,6.80
2023-09-01T07:50:08.518Z,6.90
2023-09-01T07:52:35.849Z,6.20
2023-09-01T07:55:05.671Z,6.50
2023-09-01T07:57:32.971Z,6.80
2023-09-01T07:59:59.443Z,6.40
2023-09-01T08:02:25.976Z,7.20
2023-09-01T08:04:52.572Z,6.80
2023-09-01T08:07:19.623Z,6.20
2023-09-01T08:09:46.246Z,6.00
2023-09-01T08:12:12.933Z,5.80
2023-09-01T08:14:39.595Z,6.60
2023-09-01T08:17:06.023Z,6.20
2023-09-01T08:19:32.522Z,6.70
2023-09-01T08:21:59.177Z,6.80
2023-09-01T08:24:25.792Z,7.00
2023-09-01T08:26:52.735Z,6.00
2023-09-01T08:29:19.320Z,6.10
2023-09-01T08:31:46.086Z,6.20
2023-09-01T08:34:12.597Z,6.40
2023-09-01T08:36:39.141Z,7.20
2023-09-01T08:39:07.749Z,6.80
2023-09-01T08:41:34.557Z,5.60
2023-09-01T08:44:05.003Z,5.50
2023-09-01T08:46:31.805Z,5.30
2023-09-01T08:48:58.361Z,4.80
2023-09-01T08:51:24.961Z,5.50
2023-09-01T08:53:51.592Z,6.40
2023-09-01T08:56:18.417Z,5.70
2023-09-01T08:58:46.773Z,10.50
2023-09-01T09:01:14.602Z,8.00
2023-09-01T09:03:41.507Z,11.20
2023-09-01T09:06:12.242Z,10.80
2023-09-01T09:08:39.373Z,5.90
2023-09-01T09:11:14.858Z,11.10
2023-09-01T09:13:41.709Z,6.20
2023-09-01T09:16:15.752Z,5.50
2023-09-01T09:18:43.883Z,4.80
2023-09-01T09:21:30.585Z,5.70
2023-09-01T09:24:19.644Z,5.60
2023-09-01T09:26:55.754Z,5.20
2023-09-01T09:29:22.445Z,5.50
2023-09-01T09:31:49.049Z,5.90
2023-09-01T09:34:16.242Z,6.70
2023-09-01T09:36:43.962Z,6.70
2023-09-01T09:39:33.587Z,6.70
2023-09-01T09:42:00.293Z,7.30
2023-09-01T09:44:30.303Z,6.60
2023-09-01T09:46:57.384Z,6.10
2023-09-01T09:49:24.511Z,6.80
2023-09-01T09:51:53.991Z,8.00
2023-09-01T09:54:22.064Z,6.70
2023-09-01T09:56:52.150Z,7.10
2023-09-01T09:59:25.333Z,6.20
2023-09-01T10:01:51.951Z,6.70
2023-09-01T10:04:19.011Z,5.70
2023-09-01T10:06:45.856Z,6.10
2023-09-01T10:09:14.239Z,6.10
2023-09-01T10:11:40.683Z,6.10
2023-09-01T10:14:07.353Z,5.80
2023-09-01T10:16:34.038Z,5.70
2023-09-01T10:19:00.612Z,5.10
2023-09-01T10:21:27.310Z,5.10
2023-09-01T10:23:53.898Z,5.20
2023-09-01T10:26:29.052Z,5.40
2023-09-01T10:29:00.599Z,5.60
2023-09-01T10:31:30.524Z,5.10
2023-09-01T10:34:13.060Z,5.60
2023-09-01T10:36:40.675Z,5.40
2023-09-01T10:40:50.169Z,4.80
2023-09-01T10:43:32.313Z,4.90
2023-09-01T10:46:17.694Z,5.30
2023-09-01T10:48:48.551Z,5.00
2023-09-01T10:51:19.108Z,5.20
2023-09-01T10:53:48.564Z,5.50
2023-09-01T10:56:15.931Z,6.30
2023-09-01T10:58:50.466Z,5.00
2023-09-01T11:01:28.490Z,4.80
2023-09-01T11:03:56.348Z,4.30
2023-09-01T11:06:23.752Z,4.90
2023-09-01T11:09:00.367Z,4.70
2023-09-01T11:11:28.089Z,4.50
2023-09-01T11:13:58.601Z,4.10
2023-09-01T11:16:25.356Z,3.60
2023-09-01T11:19:01.932Z,4.10
2023-09-01T11:21:29.955Z,4.40
2023-09-01T11:23:58.303Z,4.10
2023-09-01T11:26:25.892Z,4.80
2023-09-01T11:28:55.099Z,4.80
2023-09-01T11:31:21.845Z,4.40
2023-09-01T11:33:53.387Z,4.90
2023-09-01T11:36:20.004Z,5.10
2023-09-01T11:38:46.671Z,4.10
2023-09-01T11:41:14.860Z,4.10
2023-09-01T11:43:41.717Z,4.50
2023-09-01T11:46:08.660Z,4.40
2023-09-01T11:48:35.514Z,4.20
2023-09-01T11:51:02.419Z,4.60
2023-09-01T11:53:30.363Z,4.10
2023-09-01T11:56:01.584Z,4.10
2023-09-01T11:58:31.366Z,4.20
2023-09-01T12:00:59.852Z,4.40
2023-09-01T12:03:50.287Z,4.20
2023-09-01T12:06:24.608Z,4.10
2023-09-01T12:09:13.620Z,4.00
2023-09-01T12:11:54.065Z,4.10
2023-09-01T12:14:27.732Z,3.90
2023-09-01T12:16:55.241Z,3.60
2023-09-01T12:19:25.363Z,4.70
2023-09-01T12:21:53.648Z,4.00
2023-09-01T12:24:20.205Z,3.90
2023-09-01T12:26:47.574Z,3.50
2023-09-01T12:29:14.398Z,3.60
2023-09-01T12:31:42.664Z,4.10
2023-09-01T12:34:09.388Z,3.70
2023-09-01T12:36:36.146Z,3.90
2023-09-01T12:39:02.892Z,4.60
2023-09-01T12:41:29.686Z,3.90
2023-09-01T12:43:56.305Z,3.70
2023-09-01T12:46:23.196Z,3.90
2023-09-01T12:48:49.882Z,3.80
2023-09-01T12:51:16.547Z,3.90
2023-09-01T12:53:43.868Z,3.60
2023-09-01T12:56:11.637Z,4.10
2023-09-01T12:58:38.616Z,3.60
2023-09-01T13:01:06.509Z,3.70
2023-09-01T13:03:33.384Z,3.80
2023-09-01T13:06:00.232Z,3.70
2023-09-01T13:08:29.611Z,3.50
2023-09-01T13:10:56.136Z,3.90
2023-09-01T13:13:23.286Z,4.10
2023-09-01T13:15:50.023Z,4.30
2023-09-01T13:18:16.837Z,4.30
2023-09-01T13:20:43.585Z,4.10
2023-09-01T13:23:10.044Z,4.30
2023-09-01T13:25:36.633Z,3.90
2023-09-01T13:28:04.160Z,3.50
2023-09-01T13:30:37.213Z,3.30
2023-09-01T13:33:04.215Z,3.50
2023-09-01T13:35:31.002Z,3.60
2023-09-01T13:37:57.663Z,3.40
2023-09-01T13:40:26.837Z,4.00
2023-09-01T13:42:53.681Z,3.90
2023-09-01T13:45:20.181Z,3.40
2023-09-01T13:47:46.911Z,3.70
2023-09-01T13:50:14.038Z,3.10
2023-09-01T13:52:40.647Z,3.00
2023-09-01T13:55:07.445Z,3.10
2023-09-01T13:57:34.059Z,3.40
2023-09-01T14:00:01.260Z,3.60
2023-09-01T14:02:28.456Z,3.30
2023-09-01T14:04:55.276Z,3.20
2023-09-01T14:07:21.838Z,3.90
2023-09-01T14:09:48.452Z,3.70
2023-09-01T14:12:14.974Z,3.30
2023-09-01T14:14:41.728Z,3.10
2023-09-01T14:17:08.352Z,3.40
2023-09-01T14:19:35.518Z,3.40
2023-09-01T14:22:02.169Z,4.10
2023-09-01T14:24:29.122Z,3.60
2023-09-01T14:26:55.772Z,3.30
2023-09-01T14:29:22.971Z,3.30
2023-09-01T14:31:49.600Z,3.20
2023-09-01T14:34:16.369Z,3.60
2023-09-01T14:36:42.942Z,3.30
2023-09-01T14:39:09.751Z,3.50
2023-09-01T14:41:36.500Z,3.70
2023-09-01T14:44:03.203Z,3.40
2023-09-01T14:46:33.517Z,3.30
2023-09-01T14:49:03.532Z,3.50
2023-09-01T14:51:30.449Z,3.70
2023-09-01T14:53:57.381Z,3.80
2023-09-01T14:56:24.455Z,3.60
2023-09-01T14:58:53.774Z,3.60
2023-09-01T15:01:23.490Z,3.50
2023-09-01T15:03:50.589Z,3.90
2023-09-01T15:06:18.121Z,4.20
2023-09-01T15:08:45.123Z,3.90
2023-09-01T15:11:11.775Z,4.00
2023-09-01T15:13:38.576Z,3.80
2023-09-01T15:16:05.517Z,4.10
2023-09-01T15:18:32.355Z,4.10
2023-09-01T15:21:06.191Z,3.60
2023-09-01T15:23:33.709Z,4.30
2023-09-01T15:26:00.610Z,5.40
2023-09-01T15:28:27.346Z,5.40
2023-09-01T15:30:54.078Z,4.10
2023-09-01T15:33:20.803Z,4.00
2023-09-01T15:35:57.653Z,4.40
2023-09-01T15:38:28.706Z,4.50
2023-09-01T15:41:02.046Z,4.20
2023-09-01T15:43:29.097Z,4.60
2023-09-01T15:45:58.081Z,4.20
2023-09-01T15:48:25.114Z,5.80
2023-09-01T15:50:56.203Z,6.10
2023-09-01T15:53:23.107Z,9.30
2023-09-01T15:55:51.796Z,7.90
2023-09-01T15:58:18.353Z,7.50
2023-09-01T16:00:45.495Z,6.10
2023-09-01T16:03:12.857Z,4.90
2023-09-01T16:05:49.138Z,4.20
2023-09-01T16:08:15.934Z,3.80
2023-09-01T16:10:43.396Z,4.50
2023-09-01T16:13:10.752Z,4.30
2023-09-01T16:15:37.367Z,4.40
2023-09-01T16:18:04.058Z,4.00
2023-09-01T16:20:32.390Z,3.70
2023-09-01T16:22:59.408Z,4.00
2023-09-01T16:25:26.124Z,4.40
2023-09-01T16:27:52.854Z,4.00
2023-09-01T16:30:20.056Z,4.40
2023-09-01T16:32:46.982Z,4.20
2023-09-01T16:35:24.279Z,3.90
2023-09-01T16:37:51.957Z,4.20
2023-09-01T16:40:19.687Z,4.30
2023-09-01T16:42:46.334Z,4.20
2023-09-01T16:45:14.693Z,4.20
2023-09-01T16:47:42.801Z,4.70
2023-09-01T16:50:10.907Z,4.20
2023-09-01T16:52:38.005Z,4.00
2023-09-01T16:55:05.666Z,3.80
2023-09-01T16:57:33.188Z,4.50
2023-09-01T16:59:59.930Z,4.20
2023-09-01T17:02:26.619Z,4.50
2023-09-01T17:04:53.379Z,4.40
2023-09-01T17:07:20.091Z,4.40
2023-09-01T17:10:05.811Z,4.40
2023-09-01T17:12:33.467Z,4.90
2023-09-01T17:15:00.465Z,4.40
2023-09-01T17:17:27.266Z,4.20
2023-09-01T17:19:54.768Z,4.40
2023-09-01T17:22:21.428Z,4.20
2023-09-01T17:24:48.089Z,4.20
2023-09-01T17:27:14.706Z,3.80
2023-09-01T17:29:41.361Z,4.00
2023-09-01T17:32:08.167Z,3.50
2023-09-01T17:34:34.873Z,3.80
2023-09-01T17:37:03.873Z,4.00
2023-09-01T17:39:30.656Z,3.70
2023-09-01T17:41:57.304Z,4.30
2023-09-01T17:44:23.791Z,3.60
2023-09-01T17:46:50.428Z,4.80
2023-09-01T17:49:17.021Z,5.30
2023-09-01T17:51:43.722Z,5.90
2023-09-01T17:54:10.395Z,5.00
2023-09-01T17:56:36.958Z,5.10
2023-09-01T17:59:03.667Z,5.30
2023-09-01T18:01:30.443Z,4.80
2023-09-01T18:03:57.233Z,5.00
2023-09-01T18:06:24.077Z,4.50
2023-09-01T18:08:51.119Z,4.00
2023-09-01T18:11:19.473Z,4.50
2023-09-01T18:13:46.552Z,4.60
2023-09-01T18:16:13.504Z,4.30
2023-09-01T18:18:40.903Z,4.40
2023-09-01T18:21:09.105Z,4.00
2023-09-01T18:23:35.823Z,4.20
2023-09-01T18:26:10.284Z,3.50
2023-09-01T18:28:43.437Z,4.20
2023-09-01T18:31:23.528Z,3.40
2023-09-01T18:33:53.374Z,3.50
2023-09-01T18:36:21.928Z,3.70
2023-09-01T18:38:49.082Z,3.20
2023-09-01T18:41:15.762Z,3.60
2023-09-01T18:43:42.237Z,3.30
2023-09-01T18:46:08.752Z,3.40
2023-09-01T18:48:35.390Z,3.30
2023-09-01T18:51:07.359Z,3.40
2023-09-01T18:53:34.415Z,2.80
2023-09-01T18:56:01.183Z,3.00
2023-09-01T18:58:27.692Z,3.40
2023-09-01T19:00:54.324Z,3.20
2023-09-01T19:03:24.718Z,3.30
2023-09-01T19:05:51.636Z,3.40
2023-09-01T19:08:22.934Z,2.90
2023-09-01T19:10:51.695Z,3.50
2023-09-01T19:13:20.096Z,3.40
2023-09-01T19:15:55.274Z,3.30
2023-09-01T19:18:31.919Z,3.30
2023-09-01T19:21:00.515Z,3.00
2023-09-01T19:23:29.499Z,2.90
2023-09-01T19:26:00.541Z,3.00
2023-09-01T19:28:37.783Z,3.20
2023-09-01T19:31:06.511Z,3.10
2023-09-01T19:33:35.240Z,3.60
2023-09-01T19:36:01.831Z,3.80
2023-09-01T19:38:29.753Z,3.40
2023-09-01T19:40:56.525Z,3.50
2023-09-01T19:43:25.704Z,4.50
2023-09-01T19:45:53.228Z,4.90
2023-09-01T19:48:20.151Z,3.90
2023-09-01T19:50:46.816Z,4.20
2023-09-01T19:53:19.640Z,3.90
2023-09-01T19:55:48.637Z,4.40
2023-09-01T19:58:16.046Z,4.20
2023-09-01T20:00:42.896Z,4.50
2023-09-01T20:03:13.096Z,4.90
2023-09-01T20:05:39.616Z,5.40
2023-09-01T20:08:06.255Z,4.10
2023-09-01T20:10:36.448Z,4.90
2023-09-01T20:13:04.193Z,5.10
2023-09-01T20:15:37.621Z,5.70
2023-09-01T20:18:16.588Z,4.90
2023-09-01T20:20:45.053Z,5.30
2023-09-01T20:23:11.504Z,5.10
2023-09-01T20:25:37.979Z,5.60
2023-09-01T20:28:04.728Z,5.70
2023-09-01T20:30:31.486Z,4.70
2023-09-01T20:32:58.169Z,4.60
2023-09-01T20:35:25.966Z,4.80
2023-09-01T20:37:52.550Z,4.90
2023-09-01T20:40:19.051Z,4.70
2023-09-01T20:42:45.693Z,4.20
2023-09-01T20:45:12.348Z,4.70
2023-09-01T20:47:39.018Z,4.90
2023-09-01T20:50:06.734Z,4.30
2023-09-01T20:52:38.012Z,4.30
2023-09-01T20:55:09.252Z,4.30
2023-09-01T20:57:40.669Z,4.00
2023-09-01T21:00:09.025Z,4.30
2023-09-01T21:02:36.246Z,4.20
2023-09-01T21:05:05.104Z,4.30
2023-09-01T21:07:32.410Z,4.40
2023-09-01T21:09:59.156Z,4.00
2023-09-01T21:12:26.528Z,3.80
2023-09-01T21:14:53.044Z,4.20
2023-09-01T21:17:19.583Z,4.00
2023-09-01T21:19:46.207Z,4.00
2023-09-01T21:22:12.707Z,4.60
2023-09-01T21:24:39.265Z,4.10
2023-09-01T21:27:07.190Z,4.30
2023-09-01T21:29:36.720Z,4.20
2023-09-01T21:32:03.451Z,4.40
2023-09-01T21:34:30.060Z,4.40
2023-09-01T21:36:56.732Z,4.50
2023-09-01T21:39:23.287Z,4.60
2023-09-01T21:41:49.739Z,4.00
2023-09-01T21:44:17.212Z,4.40
2023-09-01T21:46:44.176Z,4.00
2023-09-01T21:49:10.783Z,4.20
2023-09-01T21:51:37.466Z,4.00
2023-09-01T21:54:04.378Z,4.10
2023-09-01T21:56:30.985Z,4.30
2023-09-01T21:58:58.494Z,4.00
2023-09-01T22:01:25.162Z,4.20
2023-09-01T22:03:51.843Z,4.30
2023-09-01T22:06:18.398Z,4.10
2023-09-01T22:08:45.009Z,4.10
2023-09-01T22:11:11.905Z,4.70
2023-09-01T22:13:40.417Z,3.70
2023-09-01T22:16:09.495Z,3.80
2023-09-01T22:18:37.444Z,3.90
2023-09-01T22:21:07.194Z,4.00
2023-09-01T22:23:34.045Z,4.10
2023-09-01T22:26:00.999Z,4.10
2023-09-01T22:28:28.268Z,4.30
2023-09-01T22:30:55.216Z,4.10
2023-09-01T22:33:21.867Z,4.00
2023-09-01T22:35:48.637Z,3.80
2023-09-01T22:38:16.204Z,4.20
2023-09-01T22:40:45.206Z,3.80
2023-09-01T22:43:13.050Z,4.40
2023-09-01T22:45:39.638Z,4.50
2023-09-01T22:48:06.620Z,4.20
2023-09-01T22:50:33.244Z,3.70
2023-09-01T22:52:59.885Z,4.10
2023-09-01T22:58:04.085Z,4.30
2023-09-01T23:00:34.451Z,4.30
2023-09-01T23:03:01.945Z,4.70
2023-09-01T23:05:29.416Z,3.90
2023-09-01T23:07:59.531Z,4.80
2023-09-01T23:10:27.582Z,4.00
2023-09-01T23:12:55.016Z,3.80
2023-09-01T23:15:24.162Z,4.10
2023-09-01T23:17:54.830Z,3.90
2023-09-01T23:20:24.425Z,3.90
2023-09-01T23:22:52.048Z,3.90
2023-09-01T23:25:19.908Z,3.70
2023-09-01T23:27:47.448Z,3.90
2023-09-01T23:30:15.523Z,3.70
2023-09-01T23:32:42.932Z,3.70
2023-09-01T23:35:10.373Z,3.70
2023-09-01T23:37:40.768Z,3.70
2023-09-01T23:40:11.255Z,4.10
2023-09-01T23:42:38.823Z,3.70
2023-09-01T23:45:08.312Z,3.90
2023-09-01T23:47:41.681Z,4.60
2023-09-01T23:50:11.156Z,3.80
2023-09-01T23:52:38.577Z,4.00
2023-09-01T23:55:06.176Z,3.90
2023-09-01T23:57:33.924Z,4.10
